createdAt,value
2018-11-11T00:01:09.500Z,109.07
2018-11-11T00:03:39.438Z,117.53
2018-11-11T00:06:09.444Z,157.37
2018-11-11T00:08:37.950Z,110.70
2018-11-11T00:11:06.513Z,97.87
2018-11-11T00:13:35.018Z,102.60
2018-11-11T00:16:03.550Z,175.10
2018-11-11T00:18:32.061Z,130.67
2018-11-11T00:21:00.546Z,123.13
2018-11-11T00:23:29.394Z,158.07
2018-11-11T00:25:57.974Z,153.37
2018-11-11T00:28:26.671Z,115.03
2018-11-11T00:30:55.692Z,133.63
2018-11-11T00:33:24.200Z,98.37
2018-11-11T00:35:52.713Z,150.13
2018-11-11T00:38:21.225Z,123.87
2018-11-11T00:40:49.710Z,157.53
2018-11-11T00:43:18.206Z,101.67
2018-11-11T00:45:47.843Z,132.83
2018-11-11T00:48:17.422Z,131.25
2018-11-11T00:50:45.905Z,116.73
2018-11-11T00:58:12.703Z,145.30
2018-11-11T01:00:41.792Z,125.10
2018-11-11T01:03:10.792Z,127.13
2018-11-11T01:05:40.416Z,206.50
2018-11-11T01:08:08.894Z,188.37
2018-11-11T01:10:39.411Z,185.47
2018-11-11T01:13:08.988Z,186.97
2018-11-11T01:15:38.101Z,184.87
2018-11-11T01:18:06.614Z,209.10
2018-11-11T01:20:35.129Z,151.93
2018-11-11T01:23:04.367Z,145.70
2018-11-11T01:25:32.845Z,128.30
2018-11-11T01:28:01.746Z,101.20
2018-11-11T01:30:30.223Z,101.78
2018-11-11T01:32:58.701Z,172.83
2018-11-11T01:35:27.245Z,232.43
2018-11-11T01:37:55.721Z,171.80
2018-11-11T01:40:24.208Z,174.43
2018-11-11T01:42:52.710Z,214.67
2018-11-11T01:45:22.082Z,142.80
2018-11-11T01:47:50.669Z,146.20
2018-11-11T01:50:19.809Z,111.90
2018-11-11T01:52:48.970Z,127.40
2018-11-11T01:55:17.451Z,103.05
2018-11-11T01:57:45.949Z,102.67
2018-11-11T02:05:13.042Z,92.43
2018-11-11T02:07:43.229Z,115.53
2018-11-11T02:10:11.927Z,106.17
2018-11-11T02:12:44.578Z,95.53
2018-11-11T02:15:14.149Z,99.23
2018-11-11T02:17:42.786Z,105.10
2018-11-11T02:20:14.368Z,96.40
2018-11-11T02:22:43.844Z,99.90
2018-11-11T02:25:12.340Z,83.40
2018-11-11T02:27:40.877Z,116.57
2018-11-11T02:30:12.208Z,100.43
2018-11-11T02:32:41.354Z,96.57
2018-11-11T02:35:10.485Z,99.07
2018-11-11T02:37:39.438Z,79.70
2018-11-11T02:40:10.167Z,74.27
2018-11-11T02:42:38.673Z,71.03
2018-11-11T02:45:08.773Z,86.20
2018-11-11T02:47:37.754Z,100.90
2018-11-11T02:50:08.387Z,105.43
2018-11-11T02:52:36.890Z,88.17
2018-11-11T02:59:58.275Z,103.93
2018-11-11T03:02:26.899Z,105.67
2018-11-11T03:04:55.364Z,93.73
2018-11-11T03:07:23.889Z,67.70
2018-11-11T03:09:53.533Z,77.87
2018-11-11T03:12:21.993Z,70.23
2018-11-11T03:14:50.525Z,90.75
2018-11-11T03:17:19.005Z,77.47
2018-11-11T03:19:47.480Z,84.72
2018-11-11T03:22:18.678Z,78.43
2018-11-11T03:24:47.857Z,82.00
2018-11-11T03:27:18.317Z,76.77
2018-11-11T03:29:46.797Z,80.80
2018-11-11T03:37:09.018Z,93.00
2018-11-11T03:39:37.686Z,81.43
2018-11-11T03:42:06.167Z,94.53
2018-11-11T03:44:35.286Z,83.07
2018-11-11T03:47:03.781Z,93.25
2018-11-11T03:49:32.287Z,84.00
2018-11-11T03:52:00.801Z,81.57
2018-11-11T03:54:29.324Z,102.05
2018-11-11T03:56:57.850Z,78.17
2018-11-11T03:59:28.329Z,82.03
2018-11-11T04:01:56.833Z,68.40
2018-11-11T04:04:25.366Z,64.85
2018-11-11T04:06:54.256Z,58.47
2018-11-11T04:09:22.743Z,60.83
2018-11-11T04:11:51.881Z,58.40
2018-11-11T04:14:20.366Z,52.87
2018-11-11T04:16:48.902Z,49.23
2018-11-11T04:19:18.562Z,44.08
2018-11-11T04:21:47.123Z,47.33
2018-11-11T04:24:17.466Z,47.62
2018-11-11T04:26:45.981Z,44.67
2018-11-11T04:34:12.253Z,45.93
2018-11-11T04:36:42.356Z,45.20
2018-11-11T04:39:11.781Z,49.73
2018-11-11T04:41:40.281Z,54.18
2018-11-11T04:44:09.162Z,53.93
2018-11-11T04:46:37.690Z,54.23
2018-11-11T04:49:06.181Z,59.80
2018-11-11T04:51:35.116Z,59.10
2018-11-11T04:54:03.580Z,79.60
2018-11-11T04:56:32.374Z,67.83
2018-11-11T04:59:00.859Z,69.10
2018-11-11T05:01:29.448Z,64.22
2018-11-11T05:03:57.845Z,68.37
2018-11-11T05:06:26.306Z,60.35
2018-11-11T05:08:54.781Z,77.80
2018-11-11T05:11:23.285Z,64.20
2018-11-11T05:13:53.525Z,78.50
2018-11-11T05:16:22.727Z,65.83
2018-11-11T05:18:52.353Z,56.03
2018-11-11T05:21:20.826Z,59.48
2018-11-11T05:23:49.298Z,69.90
2018-11-11T05:26:17.789Z,109.97
2018-11-11T05:28:46.320Z,50.87
2018-11-11T05:36:09.273Z,62.53
2018-11-11T05:38:38.521Z,56.57
2018-11-11T05:41:07.065Z,43.90
2018-11-11T05:43:35.602Z,37.10
2018-11-11T05:46:04.101Z,37.67
2018-11-11T05:48:32.566Z,43.10
2018-11-11T05:51:01.109Z,42.63
2018-11-11T05:53:30.310Z,34.97
2018-11-11T05:55:59.713Z,37.47
2018-11-11T05:58:28.466Z,38.03
2018-11-11T06:00:56.962Z,52.00
2018-11-11T06:03:25.470Z,39.40
2018-11-11T06:05:53.984Z,51.77
2018-11-11T06:08:22.450Z,52.10
2018-11-11T06:10:50.950Z,54.70
2018-11-11T06:13:19.537Z,44.98
2018-11-11T06:15:48.701Z,54.13
2018-11-11T06:18:17.473Z,91.60
2018-11-11T06:20:47.336Z,48.67
2018-11-11T06:23:17.389Z,38.13
2018-11-11T06:25:45.893Z,32.13
2018-11-11T06:33:08.957Z,67.03
2018-11-11T06:35:37.598Z,32.42
2018-11-11T06:38:06.113Z,38.23
2018-11-11T06:40:35.598Z,32.08
2018-11-11T06:43:04.142Z,40.37
2018-11-11T06:45:32.622Z,48.23
2018-11-11T06:48:01.144Z,52.47
2018-11-11T06:50:29.867Z,59.77
2018-11-11T06:52:58.345Z,66.77
2018-11-11T06:55:26.853Z,61.27
2018-11-11T06:57:55.356Z,76.10
2018-11-11T07:00:23.832Z,53.13
2018-11-11T07:03:03.576Z,102.62
2018-11-11T07:05:32.107Z,132.10
2018-11-11T07:08:00.578Z,43.73
2018-11-11T07:10:30.032Z,149.32
2018-11-11T07:12:58.541Z,114.33
2018-11-11T07:15:27.579Z,128.27
2018-11-11T07:17:57.217Z,97.83
2018-11-11T07:20:25.697Z,143.57
2018-11-11T07:22:54.172Z,82.30
2018-11-11T07:25:23.318Z,76.77
2018-11-11T07:27:52.094Z,118.10
2018-11-11T07:30:21.134Z,49.80
2018-11-11T07:32:49.635Z,60.70
2018-11-11T07:35:18.850Z,85.12
2018-11-11T07:37:48.723Z,70.57
2018-11-11T07:40:19.573Z,88.37
2018-11-11T07:42:48.068Z,83.03
2018-11-11T07:55:08.032Z,36.70
2018-11-11T07:57:36.966Z,47.13
2018-11-11T08:05:02.905Z,25.30
2018-11-11T08:07:31.402Z,32.40
2018-11-11T08:09:59.921Z,28.40
2018-11-11T08:12:28.902Z,25.23
2018-11-11T08:14:57.476Z,26.23
2018-11-11T08:17:25.970Z,27.07
2018-11-11T08:19:56.679Z,23.70
2018-11-11T08:22:25.237Z,20.63
2018-11-11T08:24:53.757Z,20.50
2018-11-11T08:27:22.274Z,22.22
2018-11-11T08:29:51.801Z,19.53
2018-11-11T08:32:20.887Z,18.17
2018-11-11T08:34:49.401Z,20.73
2018-11-11T08:37:18.090Z,18.37
2018-11-11T08:39:46.574Z,20.40
2018-11-11T08:47:15.044Z,18.40
2018-11-11T08:49:43.509Z,18.30
2018-11-11T08:52:12.506Z,19.33
2018-11-11T08:54:41.258Z,18.33
2018-11-11T08:57:09.862Z,18.57
2018-11-11T08:59:38.945Z,19.17
2018-11-11T09:02:07.794Z,16.40
2018-11-11T09:04:36.907Z,20.90
2018-11-11T09:07:05.821Z,18.23
2018-11-11T09:09:34.987Z,16.93
2018-11-11T09:12:03.545Z,20.52
2018-11-11T09:14:33.427Z,18.80
2018-11-11T09:17:02.278Z,19.80
2018-11-11T09:19:30.962Z,19.32
2018-11-11T09:22:00.266Z,19.27
2018-11-11T09:24:28.766Z,26.07
2018-11-11T09:26:57.410Z,20.97
2018-11-11T09:29:25.891Z,29.10
2018-11-11T09:31:54.430Z,23.98
2018-11-11T09:34:23.345Z,24.03
2018-11-11T09:36:53.907Z,23.27
2018-11-11T09:39:23.516Z,20.85
2018-11-11T09:41:52.038Z,17.30
2018-11-11T09:44:20.550Z,16.95
2018-11-11T09:46:49.107Z,15.87
2018-11-11T09:49:17.708Z,19.93
2018-11-11T09:51:47.195Z,19.87
2018-11-11T09:54:18.757Z,17.65
2018-11-11T09:56:47.319Z,22.93
2018-11-11T09:59:17.869Z,15.93
2018-11-11T10:01:46.793Z,16.40
2018-11-11T10:09:46.690Z,16.60
2018-11-11T10:17:18.538Z,17.13
2018-11-11T10:19:54.620Z,16.10
2018-11-11T10:22:35.728Z,19.13
2018-11-11T10:25:38.402Z,19.10
2018-11-11T10:28:12.546Z,20.67
2018-11-11T10:30:44.703Z,20.00
2018-11-11T10:34:33.803Z,20.97
2018-11-11T10:37:06.847Z,20.00
2018-11-11T10:39:41.676Z,19.02
2018-11-11T10:42:14.643Z,19.40
2018-11-11T10:44:53.160Z,20.80
2018-11-11T10:47:31.924Z,21.20
2018-11-11T10:50:03.585Z,24.53
2018-11-11T10:52:32.118Z,20.93
2018-11-11T10:55:00.629Z,21.27
2018-11-11T10:57:29.924Z,22.00
2018-11-11T10:59:59.228Z,25.80
2018-11-11T11:02:27.810Z,22.83
2018-11-11T11:05:02.133Z,22.67
2018-11-11T11:07:31.932Z,21.93
2018-11-11T11:10:00.958Z,25.80
2018-11-11T11:12:29.952Z,23.77
2018-11-11T11:14:59.733Z,23.15
2018-11-11T11:17:29.316Z,26.57
2018-11-11T11:19:57.837Z,22.37
2018-11-11T11:22:27.650Z,22.23
2018-11-11T11:24:56.161Z,23.50
2018-11-11T11:27:24.690Z,23.37
2018-11-11T11:29:53.128Z,23.40
2018-11-11T11:32:21.593Z,24.00
2018-11-11T11:34:50.774Z,21.10
2018-11-11T11:37:19.284Z,21.30
2018-11-11T11:39:47.981Z,24.20
2018-11-11T11:42:17.405Z,23.57
2018-11-11T11:44:45.939Z,21.27
2018-11-11T11:52:15.249Z,23.67
2018-11-11T11:54:44.324Z,23.30
2018-11-11T11:57:13.401Z,21.47
2018-11-11T11:59:42.655Z,20.83
2018-11-11T12:02:11.208Z,28.50
2018-11-11T12:04:39.950Z,23.20
2018-11-11T12:07:08.459Z,19.52
2018-11-11T12:09:36.965Z,22.03
2018-11-11T12:12:05.686Z,21.00
2018-11-11T12:14:34.990Z,21.85
2018-11-11T12:17:04.178Z,20.62
2018-11-11T12:19:32.590Z,23.07
2018-11-11T12:22:01.107Z,34.77
2018-11-11T12:24:30.553Z,23.53
2018-11-11T12:26:59.051Z,20.60
2018-11-11T12:29:27.558Z,20.47
2018-11-11T12:31:56.033Z,21.47
2018-11-11T12:34:24.500Z,19.80
2018-11-11T12:36:54.135Z,21.07
2018-11-11T12:39:22.865Z,20.40
2018-11-11T12:41:51.314Z,25.70
2018-11-11T12:44:19.838Z,20.90
2018-11-11T12:46:48.465Z,21.93
2018-11-11T12:49:17.833Z,21.17
2018-11-11T12:51:46.865Z,20.87
2018-11-11T13:04:06.546Z,21.40
2018-11-11T13:06:35.005Z,22.37
2018-11-11T13:09:04.758Z,22.22
2018-11-11T13:11:34.056Z,21.27
2018-11-11T13:14:02.505Z,24.27
2018-11-11T13:16:30.991Z,23.10
2018-11-11T13:18:59.581Z,23.47
2018-11-11T13:21:28.061Z,22.60
2018-11-11T13:23:56.545Z,23.43
2018-11-11T13:26:25.968Z,27.67
2018-11-11T13:28:54.441Z,28.62
2018-11-11T13:31:22.913Z,22.97
2018-11-11T13:33:51.495Z,25.17
2018-11-11T13:36:19.986Z,23.53
2018-11-11T13:38:48.474Z,24.87
2018-11-11T13:41:17.394Z,21.93
2018-11-11T13:43:45.862Z,20.97
2018-11-11T13:51:13.569Z,20.30
2018-11-11T13:53:42.066Z,18.73
2018-11-11T13:56:10.633Z,21.25
2018-11-11T13:58:39.232Z,20.80
2018-11-11T14:01:07.713Z,20.50
2018-11-11T14:03:36.238Z,21.10
2018-11-11T14:06:04.773Z,17.90
2018-11-11T14:08:33.252Z,18.37
2018-11-11T14:11:01.796Z,18.57
2018-11-11T14:13:30.906Z,17.10
2018-11-11T14:15:59.388Z,19.40
2018-11-11T14:18:28.192Z,18.73
2018-11-11T14:20:56.587Z,17.60
2018-11-11T14:23:25.100Z,22.20
2018-11-11T14:25:53.638Z,21.02
2018-11-11T14:28:23.424Z,23.03
2018-11-11T14:30:51.894Z,18.43
2018-11-11T14:33:20.361Z,23.60
2018-11-11T14:35:49.992Z,15.20
2018-11-11T14:38:18.502Z,16.40
2018-11-11T14:40:46.985Z,22.00
2018-11-11T14:48:15.505Z,19.50
2018-11-11T14:50:44.022Z,15.73
2018-11-11T14:53:12.483Z,15.27
2018-11-11T14:55:42.053Z,16.50
2018-11-11T14:58:10.560Z,12.67
2018-11-11T15:00:39.042Z,17.97
2018-11-11T15:03:19.255Z,16.82
2018-11-11T15:05:48.337Z,21.93
2018-11-11T15:08:17.382Z,18.97
2018-11-11T15:10:46.425Z,16.33
2018-11-11T15:18:11.046Z,16.93
2018-11-11T15:20:40.249Z,14.67
2018-11-11T15:23:09.146Z,15.03
2018-11-11T15:25:37.657Z,13.97
2018-11-11T15:28:06.833Z,16.23
2018-11-11T15:30:39.425Z,20.90
2018-11-11T15:33:08.439Z,27.83
2018-11-11T15:35:37.042Z,15.80
2018-11-11T15:38:06.325Z,18.82
2018-11-11T15:40:36.149Z,24.30
2018-11-11T15:43:04.931Z,25.40
2018-11-11T15:45:34.359Z,26.02
2018-11-11T15:48:03.250Z,32.80
2018-11-11T15:50:32.826Z,31.90
2018-11-11T15:53:03.285Z,29.20
2018-11-11T15:55:33.057Z,24.50
2018-11-11T15:58:01.538Z,18.60
2018-11-11T16:00:31.282Z,23.07
2018-11-11T16:03:02.010Z,20.83
2018-11-11T16:05:30.789Z,22.83
2018-11-11T16:08:00.537Z,33.67
2018-11-11T16:10:31.138Z,34.67
2018-11-11T16:12:59.789Z,29.97
2018-11-11T16:15:36.598Z,28.05
2018-11-11T16:18:07.277Z,28.20
2018-11-11T16:20:36.494Z,32.50
2018-11-11T16:23:06.032Z,30.30
2018-11-11T16:25:34.911Z,27.98
2018-11-11T16:28:03.349Z,32.70
2018-11-11T16:30:33.222Z,31.27
2018-11-11T16:33:02.939Z,29.80
2018-11-11T16:35:32.087Z,33.35
2018-11-11T16:38:02.462Z,36.50
2018-11-11T16:40:33.003Z,37.67
2018-11-11T16:43:02.017Z,34.70
2018-11-11T16:45:31.761Z,34.93
2018-11-11T16:48:02.002Z,34.23
2018-11-11T16:50:31.782Z,31.40
2018-11-11T16:53:02.020Z,30.13
2018-11-11T16:55:31.498Z,34.40
2018-11-11T16:58:00.034Z,35.50
2018-11-11T17:00:30.586Z,33.28
2018-11-11T17:03:00.119Z,36.47
2018-11-11T17:05:30.137Z,38.00
2018-11-11T17:07:58.644Z,35.90
2018-11-11T17:10:28.423Z,34.40
2018-11-11T17:12:58.240Z,40.03
2018-11-11T17:15:28.201Z,35.77
2018-11-11T17:17:56.740Z,39.83
2018-11-11T17:20:25.959Z,40.53
2018-11-11T17:22:55.859Z,39.33
2018-11-11T17:25:25.045Z,40.73
2018-11-11T17:27:53.601Z,40.63
2018-11-11T17:30:23.622Z,42.55
2018-11-11T17:32:52.489Z,41.90
2018-11-11T17:35:21.694Z,44.10
2018-11-11T17:37:51.240Z,42.83
2018-11-11T17:40:21.581Z,46.50
2018-11-11T17:42:51.009Z,48.30
2018-11-11T17:45:21.171Z,51.33
2018-11-11T17:47:50.242Z,51.00
2018-11-11T17:50:22.002Z,51.83
2018-11-11T17:52:50.544Z,54.83
2018-11-11T17:55:20.433Z,58.13
2018-11-11T17:57:48.980Z,52.40
2018-11-11T18:00:20.163Z,49.32
2018-11-11T18:02:49.271Z,45.80
2018-11-11T18:05:19.193Z,44.55
2018-11-11T18:07:47.666Z,50.27
2018-11-11T18:10:18.819Z,48.78
2018-11-11T18:12:47.385Z,54.67
2018-11-11T18:20:13.760Z,55.10
2018-11-11T18:22:42.515Z,58.77
2018-11-11T18:25:11.021Z,60.63
2018-11-11T18:27:39.926Z,64.80
2018-11-11T18:30:10.754Z,67.35
2018-11-11T18:32:39.318Z,62.17
2018-11-11T18:35:09.651Z,65.87
2018-11-11T18:37:39.129Z,70.83
2018-11-11T18:40:09.716Z,73.20
2018-11-11T18:42:38.174Z,76.43
2018-11-11T18:45:10.385Z,66.10
2018-11-11T18:47:40.996Z,69.77
2018-11-11T18:50:13.045Z,67.37
2018-11-11T18:52:41.758Z,65.25
2018-11-11T18:55:11.475Z,66.83
2018-11-11T18:57:41.417Z,61.67
2018-11-11T19:00:12.659Z,67.67
2018-11-11T19:02:41.256Z,72.67
2018-11-11T19:05:12.785Z,62.37
2018-11-11T19:07:41.841Z,64.70
2018-11-11T19:10:13.066Z,82.63
2018-11-11T19:12:42.566Z,77.93
2018-11-11T19:15:12.581Z,76.45
2018-11-11T19:17:42.241Z,74.17
2018-11-11T19:20:12.637Z,81.92
2018-11-11T19:22:41.143Z,87.20
2018-11-11T19:25:12.358Z,81.97
2018-11-11T19:27:41.949Z,73.77
2018-11-11T19:30:11.672Z,82.47
2018-11-11T19:32:41.347Z,78.93
2018-11-11T19:35:10.871Z,80.30
2018-11-11T19:37:41.460Z,92.83
2018-11-11T19:40:12.397Z,87.60
2018-11-11T19:42:41.396Z,92.55
2018-11-11T19:45:11.549Z,97.73
2018-11-11T19:47:40.686Z,86.93
2018-11-11T19:50:12.088Z,90.53
2018-11-11T19:52:42.121Z,89.47
2018-11-11T19:55:12.432Z,90.10
2018-11-11T19:57:41.293Z,83.10
2018-11-11T20:00:12.254Z,95.43
2018-11-11T20:02:41.979Z,82.90
2018-11-11T20:05:12.238Z,89.28
2018-11-11T20:07:42.286Z,88.80
2018-11-11T20:10:12.471Z,98.70
2018-11-11T20:12:41.070Z,98.03
2018-11-11T20:15:12.650Z,91.07
2018-11-11T20:17:41.830Z,98.90
2018-11-11T20:20:17.137Z,93.77
2018-11-11T20:22:45.660Z,101.83
2018-11-11T20:35:08.055Z,95.60
2018-11-11T20:37:36.517Z,86.50
2018-11-11T20:40:07.995Z,80.10
2018-11-11T20:42:37.198Z,86.50
2018-11-11T20:50:01.181Z,82.93
2018-11-11T20:52:29.857Z,89.47
2018-11-11T20:54:58.375Z,90.27
2018-11-11T20:57:26.956Z,79.53
2018-11-11T20:59:56.012Z,77.42
2018-11-11T21:02:24.844Z,85.20
2018-11-11T21:04:53.386Z,75.25
2018-11-11T21:07:22.116Z,88.67
2018-11-11T21:09:50.615Z,73.53
2018-11-11T21:12:19.528Z,82.17
2018-11-11T21:14:49.210Z,83.40
2018-11-11T21:17:17.976Z,78.13
2018-11-11T21:19:47.817Z,78.52
2018-11-11T21:22:17.377Z,74.37
2018-11-11T21:24:45.980Z,71.77
2018-11-11T21:32:13.537Z,77.63
2018-11-11T21:34:42.010Z,87.73
2018-11-11T21:37:10.593Z,95.07
2018-11-11T21:39:39.389Z,89.47
2018-11-11T21:42:10.259Z,84.93
2018-11-11T21:44:38.758Z,86.57
2018-11-11T21:47:07.293Z,88.40
2018-11-11T21:49:35.777Z,85.47
2018-11-11T21:52:04.835Z,93.93
2018-11-11T21:54:33.704Z,93.50
2018-11-11T21:57:02.398Z,105.13
2018-11-11T21:59:31.087Z,95.60
2018-11-11T22:01:59.881Z,95.80
2018-11-11T22:04:28.357Z,99.87
2018-11-11T22:06:56.809Z,88.67
2018-11-11T22:09:25.303Z,94.93
2018-11-11T22:11:53.921Z,89.17
2018-11-11T22:14:22.687Z,97.20
2018-11-11T22:16:52.012Z,87.53
2018-11-11T22:19:20.494Z,94.55
2018-11-11T22:21:48.985Z,91.33
2018-11-11T22:24:18.185Z,92.05
2018-11-11T22:26:46.805Z,92.90
2018-11-11T22:34:09.044Z,95.77
2018-11-11T22:36:37.647Z,90.72
2018-11-11T22:39:08.349Z,94.70
2018-11-11T22:41:37.553Z,85.50
2018-11-11T22:44:06.902Z,86.63
2018-11-11T22:46:35.937Z,84.77
2018-11-11T22:49:04.843Z,78.47
2018-11-11T22:51:33.321Z,83.00
2018-11-11T22:54:02.404Z,79.70
2018-11-11T22:56:30.910Z,86.80
2018-11-11T22:58:59.365Z,90.77
2018-11-11T23:01:28.814Z,89.83
2018-11-11T23:03:57.321Z,82.40
2018-11-11T23:06:26.507Z,89.50
2018-11-11T23:08:54.988Z,89.07
2018-11-11T23:11:23.545Z,88.07
2018-11-11T23:13:52.029Z,73.43
2018-11-11T23:16:20.507Z,76.57
2018-11-11T23:18:49.018Z,74.97
2018-11-11T23:21:18.103Z,71.60
2018-11-11T23:23:46.570Z,86.10
2018-11-11T23:31:15.520Z,91.00
2018-11-11T23:33:43.994Z,85.90
2018-11-11T23:36:12.450Z,100.12
2018-11-11T23:38:40.938Z,78.67
2018-11-11T23:41:09.396Z,86.60
2018-11-11T23:43:37.851Z,92.90
2018-11-11T23:46:07.090Z,92.77
2018-11-11T23:48:35.545Z,103.50
2018-11-11T23:51:04.050Z,97.07
2018-11-11T23:53:33.036Z,86.87
2018-11-11T23:56:01.495Z,103.30
2018-11-11T23:58:30.795Z,100.45
